sensor_id;sensor_type;location;lat;lon;timestamp;P1;durP1;ratioP1;P2;durP2;ratioP2
66830;SDS011;53739;44.224;22.528;2023-05-27T00:00:50;17.88;;;11.20;;
66830;SDS011;53739;44.224;22.528;2023-05-27T00:03:16;15.88;;;9.30;;
66830;SDS011;53739;44.224;22.528;2023-05-27T00:05:42;11.15;;;9.40;;
66830;SDS011;53739;44.224;22.528;2023-05-27T00:08:08;24.35;;;11.45;;
66830;SDS011;53739;44.224;22.528;2023-05-27T00:10:37;15.15;;;9.70;;
66830;SDS011;53739;44.224;22.528;2023-05-27T00:13:03;18.20;;;10.07;;
66830;SDS011;53739;44.224;22.528;2023-05-27T00:15:32;15.00;;;9.50;;
66830;SDS011;53739;44.224;22.528;2023-05-27T00:17:58;14.80;;;9.85;;
66830;SDS011;53739;44.224;22.528;2023-05-27T00:20:27;21.83;;;11.35;;
66830;SDS011;53739;44.224;22.528;2023-05-27T00:22:58;22.42;;;10.82;;
66830;SDS011;53739;44.224;22.528;2023-05-27T00:32:47;16.67;;;10.70;;
66830;SDS011;53739;44.224;22.528;2023-05-27T00:39:00;15.80;;;9.90;;
66830;SDS011;53739;44.224;22.528;2023-05-27T00:48:19;18.15;;;10.68;;
66830;SDS011;53739;44.224;22.528;2023-05-27T01:29:41;17.48;;;10.13;;
66830;SDS011;53739;44.224;22.528;2023-05-27T01:50:40;13.38;;;10.70;;
66830;SDS011;53739;44.224;22.528;2023-05-27T01:53:12;20.55;;;10.82;;
66830;SDS011;53739;44.224;22.528;2023-05-27T01:58:52;17.40;;;10.10;;
66830;SDS011;53739;44.224;22.528;2023-05-27T02:01:33;14.73;;;9.65;;
66830;SDS011;53739;44.224;22.528;2023-05-27T04:23:58;22.83;;;13.18;;
66830;SDS011;53739;44.224;22.528;2023-05-27T04:27:03;19.67;;;13.27;;
66830;SDS011;53739;44.224;22.528;2023-05-27T04:29:47;21.52;;;12.85;;
66830;SDS011;53739;44.224;22.528;2023-05-27T04:32:16;15.98;;;11.45;;
66830;SDS011;53739;44.224;22.528;2023-05-27T04:41:30;21.00;;;12.52;;
66830;SDS011;53739;44.224;22.528;2023-05-27T04:44:08;19.05;;;11.18;;
66830;SDS011;53739;44.224;22.528;2023-05-27T04:46:37;14.05;;;11.25;;
66830;SDS011;53739;44.224;22.528;2023-05-27T04:49:08;18.65;;;12.30;;
66830;SDS011;53739;44.224;22.528;2023-05-27T04:51:37;20.73;;;11.68;;
66830;SDS011;53739;44.224;22.528;2023-05-27T04:54:04;15.23;;;11.00;;
66830;SDS011;53739;44.224;22.528;2023-05-27T04:56:30;19.45;;;11.25;;
66830;SDS011;53739;44.224;22.528;2023-05-27T04:58:56;14.52;;;10.40;;
66830;SDS011;53739;44.224;22.528;2023-05-27T05:01:23;22.60;;;11.40;;
66830;SDS011;53739;44.224;22.528;2023-05-27T05:03:54;15.95;;;10.15;;
66830;SDS011;53739;44.224;22.528;2023-05-27T05:06:39;16.20;;;11.13;;
66830;SDS011;53739;44.224;22.528;2023-05-27T05:09:05;18.75;;;12.02;;
66830;SDS011;53739;44.224;22.528;2023-05-27T05:11:34;16.65;;;11.15;;
66830;SDS011;53739;44.224;22.528;2023-05-27T05:14:00;15.68;;;12.30;;
66830;SDS011;53739;44.224;22.528;2023-05-27T05:16:26;12.88;;;10.65;;
66830;SDS011;53739;44.224;22.528;2023-05-27T05:18:51;15.50;;;11.32;;
66830;SDS011;53739;44.224;22.528;2023-05-27T05:21:18;13.00;;;9.52;;
66830;SDS011;53739;44.224;22.528;2023-05-27T05:23:43;17.17;;;10.73;;
66830;SDS011;53739;44.224;22.528;2023-05-27T05:26:09;14.02;;;10.18;;
66830;SDS011;53739;44.224;22.528;2023-05-27T05:28:43;12.48;;;9.88;;
66830;SDS011;53739;44.224;22.528;2023-05-27T05:31:09;16.08;;;11.20;;
66830;SDS011;53739;44.224;22.528;2023-05-27T05:33:36;15.52;;;10.25;;
66830;SDS011;53739;44.224;22.528;2023-05-27T05:36:02;12.60;;;9.68;;
66830;SDS011;53739;44.224;22.528;2023-05-27T05:38:28;13.32;;;11.13;;
66830;SDS011;53739;44.224;22.528;2023-05-27T05:40:55;14.07;;;10.90;;
66830;SDS011;53739;44.224;22.528;2023-05-27T05:43:21;12.32;;;10.10;;
66830;SDS011;53739;44.224;22.528;2023-05-27T05:45:50;10.43;;;9.02;;
66830;SDS011;53739;44.224;22.528;2023-05-27T05:48:16;12.75;;;10.38;;
66830;SDS011;53739;44.224;22.528;2023-05-27T05:50:42;13.43;;;9.93;;
66830;SDS011;53739;44.224;22.528;2023-05-27T05:53:09;14.05;;;10.10;;
66830;SDS011;53739;44.224;22.528;2023-05-27T05:55:35;14.38;;;11.32;;
66830;SDS011;53739;44.224;22.528;2023-05-27T05:58:02;11.65;;;9.93;;
66830;SDS011;53739;44.224;22.528;2023-05-27T06:00:28;14.38;;;10.73;;
66830;SDS011;53739;44.224;22.528;2023-05-27T06:02:54;17.45;;;10.65;;
66830;SDS011;53739;44.224;22.528;2023-05-27T06:05:20;16.55;;;10.85;;
66830;SDS011;53739;44.224;22.528;2023-05-27T06:07:47;13.70;;;10.70;;
66830;SDS011;53739;44.224;22.528;2023-05-27T06:10:13;15.52;;;11.20;;
66830;SDS011;53739;44.224;22.528;2023-05-27T06:12:41;16.67;;;11.10;;
66830;SDS011;53739;44.224;22.528;2023-05-27T06:15:08;17.42;;;11.40;;
66830;SDS011;53739;44.224;22.528;2023-05-27T06:17:34;11.77;;;9.80;;
66830;SDS011;53739;44.224;22.528;2023-05-27T06:20:00;14.77;;;11.18;;
66830;SDS011;53739;44.224;22.528;2023-05-27T06:22:27;12.25;;;10.90;;
66830;SDS011;53739;44.224;22.528;2023-05-27T06:24:53;15.93;;;11.48;;
66830;SDS011;53739;44.224;22.528;2023-05-27T06:27:19;17.48;;;10.75;;
66830;SDS011;53739;44.224;22.528;2023-05-27T06:29:48;11.68;;;9.80;;
66830;SDS011;53739;44.224;22.528;2023-05-27T06:32:14;11.52;;;10.30;;
66830;SDS011;53739;44.224;22.528;2023-05-27T06:34:40;14.65;;;9.95;;
66830;SDS011;53739;44.224;22.528;2023-05-27T06:37:06;12.20;;;9.90;;
66830;SDS011;53739;44.224;22.528;2023-05-27T06:39:33;12.20;;;10.18;;
66830;SDS011;53739;44.224;22.528;2023-05-27T06:41:59;16.33;;;9.52;;
66830;SDS011;53739;44.224;22.528;2023-05-27T06:44:25;14.95;;;9.85;;
66830;SDS011;53739;44.224;22.528;2023-05-27T06:46:51;12.77;;;9.40;;
66830;SDS011;53739;44.224;22.528;2023-05-27T06:49:17;11.82;;;10.57;;
66830;SDS011;53739;44.224;22.528;2023-05-27T06:51:43;10.93;;;9.82;;
66830;SDS011;53739;44.224;22.528;2023-05-27T06:54:10;13.55;;;10.73;;
66830;SDS011;53739;44.224;22.528;2023-05-27T06:56:37;12.48;;;10.93;;
66830;SDS011;53739;44.224;22.528;2023-05-27T06:59:06;14.23;;;10.85;;
66830;SDS011;53739;44.224;22.528;2023-05-27T07:01:32;16.40;;;11.10;;
66830;SDS011;53739;44.224;22.528;2023-05-27T07:03:58;13.40;;;10.35;;
66830;SDS011;53739;44.224;22.528;2023-05-27T07:06:24;12.93;;;9.88;;
66830;SDS011;53739;44.224;22.528;2023-05-27T07:08:49;13.90;;;10.43;;
66830;SDS011;53739;44.224;22.528;2023-05-27T07:11:15;12.57;;;9.57;;
66830;SDS011;53739;44.224;22.528;2023-05-27T07:13:41;11.55;;;10.10;;
66830;SDS011;53739;44.224;22.528;2023-05-27T07:16:07;14.48;;;9.15;;
66830;SDS011;53739;44.224;22.528;2023-05-27T07:18:33;16.02;;;10.73;;
66830;SDS011;53739;44.224;22.528;2023-05-27T07:20:59;12.75;;;9.70;;
66830;SDS011;53739;44.224;22.528;2023-05-27T07:23:25;11.98;;;10.13;;
66830;SDS011;53739;44.224;22.528;2023-05-27T07:25:50;13.98;;;9.40;;
66830;SDS011;53739;44.224;22.528;2023-05-27T07:28:16;11.45;;;10.00;;
66830;SDS011;53739;44.224;22.528;2023-05-27T07:30:42;12.20;;;9.63;;
66830;SDS011;53739;44.224;22.528;2023-05-27T07:33:08;11.57;;;10.35;;
66830;SDS011;53739;44.224;22.528;2023-05-27T07:35:34;11.18;;;10.00;;
66830;SDS011;53739;44.224;22.528;2023-05-27T07:37:59;12.93;;;8.73;;
66830;SDS011;53739;44.224;22.528;2023-05-27T07:40:27;10.02;;;8.88;;
66830;SDS011;53739;44.224;22.528;2023-05-27T07:42:53;14.18;;;8.85;;
66830;SDS011;53739;44.224;22.528;2023-05-27T07:45:19;11.82;;;8.40;;
66830;SDS011;53739;44.224;22.528;2023-05-27T07:47:47;11.13;;;8.88;;
66830;SDS011;53739;44.224;22.528;2023-05-27T07:50:13;10.52;;;9.38;;
66830;SDS011;53739;44.224;22.528;2023-05-27T07:52:39;9.75;;;8.20;;
66830;SDS011;53739;44.224;22.528;2023-05-27T07:55:06;11.23;;;8.85;;
66830;SDS011;53739;44.224;22.528;2023-05-27T07:57:32;9.98;;;8.55;;
66830;SDS011;53739;44.224;22.528;2023-05-27T07:59:58;11.60;;;8.50;;
66830;SDS011;53739;44.224;22.528;2023-05-27T08:02:24;13.13;;;9.77;;
66830;SDS011;53739;44.224;22.528;2023-05-27T08:04:50;10.07;;;8.75;;
66830;SDS011;53739;44.224;22.528;2023-05-27T08:07:17;12.82;;;8.30;;
66830;SDS011;53739;44.224;22.528;2023-05-27T08:09:43;9.30;;;8.00;;
66830;SDS011;53739;44.224;22.528;2023-05-27T08:12:08;12.60;;;7.97;;
66830;SDS011;53739;44.224;22.528;2023-05-27T08:14:34;13.07;;;8.65;;
66830;SDS011;53739;44.224;22.528;2023-05-27T08:17:00;9.13;;;8.02;;
66830;SDS011;53739;44.224;22.528;2023-05-27T08:19:27;12.23;;;8.93;;
66830;SDS011;53739;44.224;22.528;2023-05-27T08:21:53;10.93;;;8.82;;
66830;SDS011;53739;44.224;22.528;2023-05-27T08:24:20;15.73;;;9.13;;
66830;SDS011;53739;44.224;22.528;2023-05-27T08:26:47;13.50;;;8.95;;
66830;SDS011;53739;44.224;22.528;2023-05-27T08:29:13;12.15;;;9.65;;
66830;SDS011;53739;44.224;22.528;2023-05-27T08:31:39;10.88;;;9.02;;
66830;SDS011;53739;44.224;22.528;2023-05-27T08:34:05;14.40;;;9.18;;
66830;SDS011;53739;44.224;22.528;2023-05-27T08:36:31;11.88;;;9.70;;
66830;SDS011;53739;44.224;22.528;2023-05-27T08:38:58;14.25;;;8.65;;
66830;SDS011;53739;44.224;22.528;2023-05-27T08:41:24;9.80;;;8.63;;
66830;SDS011;53739;44.224;22.528;2023-05-27T08:43:52;12.77;;;9.95;;
66830;SDS011;53739;44.224;22.528;2023-05-27T08:46:18;12.00;;;9.43;;
66830;SDS011;53739;44.224;22.528;2023-05-27T08:48:46;15.98;;;9.70;;
66830;SDS011;53739;44.224;22.528;2023-05-27T08:51:13;11.18;;;8.52;;
66830;SDS011;53739;44.224;22.528;2023-05-27T08:53:41;13.70;;;10.60;;
66830;SDS011;53739;44.224;22.528;2023-05-27T08:56:07;11.88;;;9.63;;
66830;SDS011;53739;44.224;22.528;2023-05-27T08:58:37;13.02;;;10.73;;
66830;SDS011;53739;44.224;22.528;2023-05-27T09:01:04;14.32;;;10.68;;
66830;SDS011;53739;44.224;22.528;2023-05-27T09:03:30;11.90;;;10.68;;
66830;SDS011;53739;44.224;22.528;2023-05-27T09:05:56;16.58;;;10.68;;
66830;SDS011;53739;44.224;22.528;2023-05-27T09:08:22;13.02;;;10.45;;
66830;SDS011;53739;44.224;22.528;2023-05-27T09:10:48;13.52;;;10.73;;
66830;SDS011;53739;44.224;22.528;2023-05-27T09:13:13;12.38;;;10.07;;
66830;SDS011;53739;44.224;22.528;2023-05-27T09:15:50;12.25;;;8.70;;
66830;SDS011;53739;44.224;22.528;2023-05-27T09:18:27;10.60;;;9.23;;
66830;SDS011;53739;44.224;22.528;2023-05-27T09:20:57;10.80;;;9.30;;
66830;SDS011;53739;44.224;22.528;2023-05-27T09:23:24;13.00;;;9.68;;
66830;SDS011;53739;44.224;22.528;2023-05-27T09:25:50;9.40;;;8.40;;
66830;SDS011;53739;44.224;22.528;2023-05-27T09:28:20;12.70;;;9.18;;
66830;SDS011;53739;44.224;22.528;2023-05-27T09:30:50;10.77;;;9.50;;
66830;SDS011;53739;44.224;22.528;2023-05-27T09:33:29;9.88;;;8.57;;
66830;SDS011;53739;44.224;22.528;2023-05-27T09:35:57;11.68;;;9.57;;
66830;SDS011;53739;44.224;22.528;2023-05-27T09:38:23;12.95;;;10.65;;
66830;SDS011;53739;44.224;22.528;2023-05-27T09:40:49;12.27;;;11.00;;
66830;SDS011;53739;44.224;22.528;2023-05-27T09:43:15;14.05;;;10.20;;
66830;SDS011;53739;44.224;22.528;2023-05-27T09:45:41;16.80;;;12.65;;
66830;SDS011;53739;44.224;22.528;2023-05-27T09:48:07;17.98;;;13.32;;
66830;SDS011;53739;44.224;22.528;2023-05-27T09:50:37;18.75;;;12.90;;
66830;SDS011;53739;44.224;22.528;2023-05-27T09:53:03;15.10;;;12.68;;
66830;SDS011;53739;44.224;22.528;2023-05-27T09:55:29;15.43;;;13.02;;
66830;SDS011;53739;44.224;22.528;2023-05-27T09:57:55;14.02;;;11.98;;
66830;SDS011;53739;44.224;22.528;2023-05-27T10:00:21;13.93;;;12.52;;
66830;SDS011;53739;44.224;22.528;2023-05-27T10:02:48;16.15;;;12.70;;
66830;SDS011;53739;44.224;22.528;2023-05-27T10:05:15;15.98;;;13.20;;
66830;SDS011;53739;44.224;22.528;2023-05-27T10:07:42;13.60;;;11.18;;
66830;SDS011;53739;44.224;22.528;2023-05-27T10:10:10;13.88;;;11.65;;
66830;SDS011;53739;44.224;22.528;2023-05-27T10:12:37;15.57;;;11.43;;
66830;SDS011;53739;44.224;22.528;2023-05-27T10:15:04;16.45;;;12.35;;
66830;SDS011;53739;44.224;22.528;2023-05-27T10:17:46;17.95;;;12.85;;
66830;SDS011;53739;44.224;22.528;2023-05-27T10:23:15;14.35;;;12.73;;
66830;SDS011;53739;44.224;22.528;2023-05-27T10:28:26;13.90;;;11.90;;
66830;SDS011;53739;44.224;22.528;2023-05-27T10:30:53;16.77;;;12.60;;
66830;SDS011;53739;44.224;22.528;2023-05-27T10:33:38;14.98;;;13.38;;
66830;SDS011;53739;44.224;22.528;2023-05-27T10:38:43;16.88;;;14.30;;
66830;SDS011;53739;44.224;22.528;2023-05-27T10:41:20;20.38;;;13.70;;
66830;SDS011;53739;44.224;22.528;2023-05-27T10:43:54;20.20;;;14.65;;
66830;SDS011;53739;44.224;22.528;2023-05-27T10:46:21;17.45;;;13.73;;
66830;SDS011;53739;44.224;22.528;2023-05-27T10:48:47;16.15;;;13.02;;
66830;SDS011;53739;44.224;22.528;2023-05-27T10:51:13;21.92;;;13.75;;
66830;SDS011;53739;44.224;22.528;2023-05-27T10:53:39;16.48;;;13.57;;
66830;SDS011;53739;44.224;22.528;2023-05-27T10:56:05;15.68;;;13.07;;
66830;SDS011;53739;44.224;22.528;2023-05-27T10:58:35;16.10;;;13.52;;
66830;SDS011;53739;44.224;22.528;2023-05-27T11:01:11;19.90;;;13.43;;
66830;SDS011;53739;44.224;22.528;2023-05-27T11:03:43;18.08;;;12.55;;
66830;SDS011;53739;44.224;22.528;2023-05-27T11:06:10;16.45;;;13.02;;
66830;SDS011;53739;44.224;22.528;2023-05-27T11:08:38;18.85;;;13.82;;
66830;SDS011;53739;44.224;22.528;2023-05-27T11:13:34;19.63;;;16.05;;
66830;SDS011;53739;44.224;22.528;2023-05-27T11:16:02;15.38;;;12.88;;
66830;SDS011;53739;44.224;22.528;2023-05-27T11:18:42;17.90;;;13.55;;
66830;SDS011;53739;44.224;22.528;2023-05-27T11:21:11;16.13;;;13.52;;
66830;SDS011;53739;44.224;22.528;2023-05-27T11:26:18;21.08;;;16.15;;
66830;SDS011;53739;44.224;22.528;2023-05-27T11:28:47;24.13;;;17.10;;
66830;SDS011;53739;44.224;22.528;2023-05-27T11:31:18;25.95;;;19.00;;
66830;SDS011;53739;44.224;22.528;2023-05-27T11:33:45;20.90;;;16.58;;
66830;SDS011;53739;44.224;22.528;2023-05-27T11:36:15;25.70;;;19.15;;
66830;SDS011;53739;44.224;22.528;2023-05-27T11:41:13;21.30;;;17.23;;
66830;SDS011;53739;44.224;22.528;2023-05-27T11:43:49;26.45;;;19.92;;
66830;SDS011;53739;44.224;22.528;2023-05-27T11:46:16;24.60;;;19.30;;
66830;SDS011;53739;44.224;22.528;2023-05-27T11:48:42;25.20;;;20.35;;
66830;SDS011;53739;44.224;22.528;2023-05-27T11:51:09;24.35;;;16.33;;
66830;SDS011;53739;44.224;22.528;2023-05-27T11:53:40;23.75;;;18.23;;
66830;SDS011;53739;44.224;22.528;2023-05-27T11:56:09;24.00;;;19.10;;
66830;SDS011;53739;44.224;22.528;2023-05-27T11:58:35;21.77;;;18.52;;
66830;SDS011;53739;44.224;22.528;2023-05-27T12:01:02;23.08;;;18.85;;
66830;SDS011;53739;44.224;22.528;2023-05-27T12:03:29;22.20;;;17.90;;
66830;SDS011;53739;44.224;22.528;2023-05-27T12:05:57;21.48;;;17.55;;
66830;SDS011;53739;44.224;22.528;2023-05-27T12:08:22;22.20;;;17.85;;
66830;SDS011;53739;44.224;22.528;2023-05-27T12:10:49;23.50;;;18.67;;
66830;SDS011;53739;44.224;22.528;2023-05-27T12:13:19;30.27;;;19.50;;
66830;SDS011;53739;44.224;22.528;2023-05-27T12:15:46;27.60;;;20.48;;
66830;SDS011;53739;44.224;22.528;2023-05-27T12:18:12;20.55;;;16.48;;
66830;SDS011;53739;44.224;22.528;2023-05-27T12:20:38;23.33;;;19.17;;
66830;SDS011;53739;44.224;22.528;2023-05-27T12:23:04;25.85;;;20.60;;
66830;SDS011;53739;44.224;22.528;2023-05-27T12:25:30;28.17;;;21.95;;
66830;SDS011;53739;44.224;22.528;2023-05-27T12:27:56;30.25;;;23.30;;
66830;SDS011;53739;44.224;22.528;2023-05-27T12:30:22;28.00;;;21.95;;
66830;SDS011;53739;44.224;22.528;2023-05-27T12:32:48;27.35;;;21.52;;
66830;SDS011;53739;44.224;22.528;2023-05-27T12:35:14;25.65;;;21.15;;
66830;SDS011;53739;44.224;22.528;2023-05-27T12:37:40;26.08;;;21.25;;
66830;SDS011;53739;44.224;22.528;2023-05-27T12:40:06;26.85;;;20.75;;
66830;SDS011;53739;44.224;22.528;2023-05-27T12:42:35;26.15;;;20.13;;
66830;SDS011;53739;44.224;22.528;2023-05-27T12:45:01;32.90;;;23.98;;
66830;SDS011;53739;44.224;22.528;2023-05-27T12:47:27;34.42;;;24.00;;
66830;SDS011;53739;44.224;22.528;2023-05-27T12:49:54;25.83;;;20.30;;
66830;SDS011;53739;44.224;22.528;2023-05-27T12:52:20;27.00;;;21.65;;
66830;SDS011;53739;44.224;22.528;2023-05-27T12:54:45;25.23;;;22.00;;
66830;SDS011;53739;44.224;22.528;2023-05-27T12:57:12;27.90;;;21.85;;
66830;SDS011;53739;44.224;22.528;2023-05-27T12:59:41;30.65;;;22.95;;
66830;SDS011;53739;44.224;22.528;2023-05-27T13:02:06;31.63;;;23.58;;
66830;SDS011;53739;44.224;22.528;2023-05-27T13:04:32;31.67;;;25.33;;
66830;SDS011;53739;44.224;22.528;2023-05-27T13:06:58;29.75;;;21.98;;
66830;SDS011;53739;44.224;22.528;2023-05-27T13:09:24;30.58;;;23.77;;
66830;SDS011;53739;44.224;22.528;2023-05-27T13:11:50;31.95;;;23.95;;
66830;SDS011;53739;44.224;22.528;2023-05-27T13:14:17;33.63;;;26.60;;
66830;SDS011;53739;44.224;22.528;2023-05-27T13:16:42;34.15;;;25.88;;
66830;SDS011;53739;44.224;22.528;2023-05-27T13:19:08;32.78;;;26.73;;
66830;SDS011;53739;44.224;22.528;2023-05-27T13:21:34;31.27;;;24.98;;
66830;SDS011;53739;44.224;22.528;2023-05-27T13:24:01;35.53;;;28.48;;
66830;SDS011;53739;44.224;22.528;2023-05-27T13:26:29;30.50;;;26.40;;
66830;SDS011;53739;44.224;22.528;2023-05-27T13:28:55;34.45;;;27.63;;
66830;SDS011;53739;44.224;22.528;2023-05-27T13:31:21;36.38;;;29.25;;
66830;SDS011;53739;44.224;22.528;2023-05-27T13:33:47;32.28;;;27.35;;
66830;SDS011;53739;44.224;22.528;2023-05-27T13:36:13;36.20;;;27.80;;
66830;SDS011;53739;44.224;22.528;2023-05-27T13:38:38;29.85;;;24.48;;
66830;SDS011;53739;44.224;22.528;2023-05-27T13:41:04;31.38;;;25.20;;
66830;SDS011;53739;44.224;22.528;2023-05-27T13:43:31;32.53;;;25.23;;
66830;SDS011;53739;44.224;22.528;2023-05-27T13:45:56;36.95;;;29.40;;
66830;SDS011;53739;44.224;22.528;2023-05-27T13:48:22;35.53;;;28.15;;
66830;SDS011;53739;44.224;22.528;2023-05-27T13:50:48;34.03;;;27.45;;
66830;SDS011;53739;44.224;22.528;2023-05-27T13:53:14;32.55;;;27.92;;
66830;SDS011;53739;44.224;22.528;2023-05-27T13:58:49;32.70;;;29.02;;
66830;SDS011;53739;44.224;22.528;2023-05-27T14:01:17;40.42;;;27.58;;
66830;SDS011;53739;44.224;22.528;2023-05-27T14:03:44;31.88;;;28.42;;
66830;SDS011;53739;44.224;22.528;2023-05-27T14:06:10;37.10;;;29.42;;
66830;SDS011;53739;44.224;22.528;2023-05-27T14:08:36;36.95;;;30.88;;
66830;SDS011;53739;44.224;22.528;2023-05-27T14:11:02;38.83;;;30.35;;
66830;SDS011;53739;44.224;22.528;2023-05-27T14:13:28;35.03;;;28.02;;
66830;SDS011;53739;44.224;22.528;2023-05-27T14:15:54;34.30;;;28.90;;
66830;SDS011;53739;44.224;22.528;2023-05-27T14:18:20;38.35;;;31.50;;
66830;SDS011;53739;44.224;22.528;2023-05-27T14:20:46;36.47;;;27.67;;
66830;SDS011;53739;44.224;22.528;2023-05-27T14:23:12;34.72;;;29.02;;
66830;SDS011;53739;44.224;22.528;2023-05-27T14:25:41;34.38;;;28.45;;
66830;SDS011;53739;44.224;22.528;2023-05-27T14:28:07;34.63;;;30.73;;
66830;SDS011;53739;44.224;22.528;2023-05-27T14:30:33;33.55;;;28.70;;
66830;SDS011;53739;44.224;22.528;2023-05-27T14:33:02;40.58;;;29.33;;
66830;SDS011;53739;44.224;22.528;2023-05-27T14:42:02;40.40;;;30.58;;
66830;SDS011;53739;44.224;22.528;2023-05-27T14:44:28;55.55;;;35.40;;
66830;SDS011;53739;44.224;22.528;2023-05-27T14:46:54;33.88;;;25.83;;
66830;SDS011;53739;44.224;22.528;2023-05-27T14:49:20;32.35;;;28.35;;
66830;SDS011;53739;44.224;22.528;2023-05-27T14:51:46;32.83;;;26.23;;
66830;SDS011;53739;44.224;22.528;2023-05-27T14:54:12;43.22;;;29.85;;
66830;SDS011;53739;44.224;22.528;2023-05-27T14:56:38;31.45;;;25.45;;
66830;SDS011;53739;44.224;22.528;2023-05-27T14:59:03;32.35;;;27.10;;
66830;SDS011;53739;44.224;22.528;2023-05-27T15:01:32;30.52;;;24.60;;
66830;SDS011;53739;44.224;22.528;2023-05-27T15:03:58;33.05;;;26.75;;
66830;SDS011;53739;44.224;22.528;2023-05-27T15:06:23;35.20;;;25.70;;
66830;SDS011;53739;44.224;22.528;2023-05-27T15:08:49;34.88;;;26.73;;
66830;SDS011;53739;44.224;22.528;2023-05-27T15:13:48;37.97;;;28.45;;
66830;SDS011;53739;44.224;22.528;2023-05-27T15:16:14;35.70;;;26.15;;
66830;SDS011;53739;44.224;22.528;2023-05-27T15:18:40;32.40;;;25.48;;
66830;SDS011;53739;44.224;22.528;2023-05-27T15:21:06;40.17;;;28.73;;
66830;SDS011;53739;44.224;22.528;2023-05-27T15:23:32;38.00;;;28.40;;
66830;SDS011;53739;44.224;22.528;2023-05-27T15:25:58;36.78;;;29.77;;
66830;SDS011;53739;44.224;22.528;2023-05-27T15:28:27;38.60;;;31.40;;
66830;SDS011;53739;44.224;22.528;2023-05-27T15:30:53;45.25;;;29.60;;
66830;SDS011;53739;44.224;22.528;2023-05-27T15:33:18;46.05;;;33.58;;
66830;SDS011;53739;44.224;22.528;2023-05-27T15:35:45;43.83;;;32.97;;
66830;SDS011;53739;44.224;22.528;2023-05-27T15:38:11;49.03;;;36.45;;
66830;SDS011;53739;44.224;22.528;2023-05-27T15:40:43;48.55;;;37.13;;
66830;SDS011;53739;44.224;22.528;2023-05-27T15:43:12;49.45;;;34.10;;
66830;SDS011;53739;44.224;22.528;2023-05-27T15:45:40;45.65;;;35.42;;
66830;SDS011;53739;44.224;22.528;2023-05-27T15:48:06;41.92;;;31.92;;
66830;SDS011;53739;44.224;22.528;2023-05-27T15:50:35;45.25;;;35.75;;
66830;SDS011;53739;44.224;22.528;2023-05-27T15:53:01;44.80;;;33.85;;
66830;SDS011;53739;44.224;22.528;2023-05-27T15:55:27;44.13;;;33.63;;
66830;SDS011;53739;44.224;22.528;2023-05-27T15:57:53;47.53;;;32.40;;
66830;SDS011;53739;44.224;22.528;2023-05-27T16:00:20;49.28;;;35.85;;
66830;SDS011;53739;44.224;22.528;2023-05-27T16:02:46;44.92;;;33.90;;
66830;SDS011;53739;44.224;22.528;2023-05-27T16:05:13;46.42;;;35.03;;
66830;SDS011;53739;44.224;22.528;2023-05-27T16:07:40;42.45;;;33.53;;
66830;SDS011;53739;44.224;22.528;2023-05-27T16:10:08;43.13;;;33.28;;
66830;SDS011;53739;44.224;22.528;2023-05-27T16:12:35;41.50;;;31.80;;
66830;SDS011;53739;44.224;22.528;2023-05-27T16:15:02;45.97;;;36.08;;
66830;SDS011;53739;44.224;22.528;2023-05-27T16:17:29;46.42;;;35.10;;
66830;SDS011;53739;44.224;22.528;2023-05-27T16:19:55;44.75;;;35.92;;
66830;SDS011;53739;44.224;22.528;2023-05-27T16:22:23;45.47;;;33.72;;
66830;SDS011;53739;44.224;22.528;2023-05-27T16:24:49;44.22;;;34.50;;
66830;SDS011;53739;44.224;22.528;2023-05-27T16:27:17;41.53;;;33.58;;
66830;SDS011;53739;44.224;22.528;2023-05-27T16:29:43;40.97;;;32.42;;
66830;SDS011;53739;44.224;22.528;2023-05-27T16:32:10;39.92;;;32.75;;
66830;SDS011;53739;44.224;22.528;2023-05-27T16:34:36;42.67;;;33.65;;
66830;SDS011;53739;44.224;22.528;2023-05-27T16:37:02;39.13;;;31.33;;
66830;SDS011;53739;44.224;22.528;2023-05-27T16:39:29;40.22;;;30.10;;
66830;SDS011;53739;44.224;22.528;2023-05-27T16:41:55;40.80;;;31.58;;
66830;SDS011;53739;44.224;22.528;2023-05-27T16:44:25;50.53;;;34.33;;
66830;SDS011;53739;44.224;22.528;2023-05-27T16:46:51;45.28;;;33.17;;
66830;SDS011;53739;44.224;22.528;2023-05-27T16:49:17;37.15;;;30.70;;
66830;SDS011;53739;44.224;22.528;2023-05-27T16:51:43;37.72;;;30.40;;
66830;SDS011;53739;44.224;22.528;2023-05-27T16:54:10;40.40;;;30.60;;
66830;SDS011;53739;44.224;22.528;2023-05-27T16:56:36;42.63;;;32.72;;
66830;SDS011;53739;44.224;22.528;2023-05-27T16:59:02;42.28;;;31.38;;
66830;SDS011;53739;44.224;22.528;2023-05-27T17:01:28;38.90;;;30.95;;
66830;SDS011;53739;44.224;22.528;2023-05-27T17:03:54;42.90;;;32.13;;
66830;SDS011;53739;44.224;22.528;2023-05-27T17:06:22;47.80;;;33.20;;
66830;SDS011;53739;44.224;22.528;2023-05-27T17:08:48;43.67;;;33.47;;
66830;SDS011;53739;44.224;22.528;2023-05-27T17:11:14;40.45;;;31.20;;
66830;SDS011;53739;44.224;22.528;2023-05-27T17:13:40;42.97;;;33.80;;
66830;SDS011;53739;44.224;22.528;2023-05-27T17:16:06;45.13;;;32.83;;
66830;SDS011;53739;44.224;22.528;2023-05-27T17:18:32;41.67;;;32.63;;
66830;SDS011;53739;44.224;22.528;2023-05-27T17:20:58;40.67;;;31.33;;
66830;SDS011;53739;44.224;22.528;2023-05-27T17:23:24;39.88;;;32.78;;
66830;SDS011;53739;44.224;22.528;2023-05-27T17:25:50;44.20;;;32.17;;
66830;SDS011;53739;44.224;22.528;2023-05-27T17:28:16;42.85;;;33.33;;
66830;SDS011;53739;44.224;22.528;2023-05-27T17:30:42;43.67;;;32.63;;
66830;SDS011;53739;44.224;22.528;2023-05-27T17:33:08;41.97;;;33.47;;
66830;SDS011;53739;44.224;22.528;2023-05-27T17:35:34;48.55;;;34.92;;
66830;SDS011;53739;44.224;22.528;2023-05-27T17:38:00;43.90;;;33.13;;
66830;SDS011;53739;44.224;22.528;2023-05-27T17:40:25;42.58;;;34.10;;
66830;SDS011;53739;44.224;22.528;2023-05-27T17:42:51;46.10;;;34.35;;
66830;SDS011;53739;44.224;22.528;2023-05-27T17:45:17;46.00;;;34.58;;
66830;SDS011;53739;44.224;22.528;2023-05-27T17:47:43;48.45;;;35.92;;
66830;SDS011;53739;44.224;22.528;2023-05-27T17:50:09;51.05;;;36.25;;
66830;SDS011;53739;44.224;22.528;2023-05-27T17:52:35;48.42;;;36.53;;
66830;SDS011;53739;44.224;22.528;2023-05-27T17:55:01;49.38;;;37.28;;
66830;SDS011;53739;44.224;22.528;2023-05-27T17:57:27;49.42;;;34.35;;
66830;SDS011;53739;44.224;22.528;2023-05-27T17:59:55;46.55;;;33.97;;
66830;SDS011;53739;44.224;22.528;2023-05-27T18:02:21;49.47;;;36.17;;
66830;SDS011;53739;44.224;22.528;2023-05-27T18:04:47;54.15;;;36.83;;
66830;SDS011;53739;44.224;22.528;2023-05-27T18:07:13;48.40;;;34.13;;
66830;SDS011;53739;44.224;22.528;2023-05-27T18:09:39;51.13;;;36.92;;
66830;SDS011;53739;44.224;22.528;2023-05-27T18:12:05;48.15;;;36.03;;
66830;SDS011;53739;44.224;22.528;2023-05-27T18:14:32;46.03;;;35.50;;
66830;SDS011;53739;44.224;22.528;2023-05-27T18:17:00;44.10;;;34.75;;
66830;SDS011;53739;44.224;22.528;2023-05-27T18:19:28;45.17;;;36.03;;
66830;SDS011;53739;44.224;22.528;2023-05-27T18:21:53;46.65;;;34.28;;
66830;SDS011;53739;44.224;22.528;2023-05-27T18:24:19;48.78;;;35.90;;